createdAt,value
2018-06-30T00:00:58.332Z,98.40
2018-06-30T00:03:32.541Z,98.80
2018-06-30T00:06:01.533Z,99.00
2018-06-30T00:08:30.427Z,99.20
2018-06-30T00:10:59.817Z,99.40
2018-06-30T00:13:28.715Z,99.70
2018-06-30T00:15:57.632Z,99.80
2018-06-30T00:18:26.533Z,99.80
2018-06-30T00:20:55.482Z,99.90
2018-06-30T00:23:24.383Z,99.90
2018-06-30T00:25:53.305Z,99.90
2018-06-30T00:28:22.664Z,99.90
2018-06-30T00:30:51.569Z,99.90
2018-06-30T00:33:20.479Z,99.90
2018-06-30T00:35:49.405Z,99.90
2018-06-30T00:38:18.508Z,99.90
2018-06-30T00:40:47.365Z,99.90
2018-06-30T00:43:16.279Z,99.90
2018-06-30T00:45:45.188Z,99.90
2018-06-30T00:48:14.088Z,99.90
2018-06-30T00:50:43.159Z,99.90
2018-06-30T00:53:12.160Z,99.90
2018-06-30T00:55:41.075Z,99.90
2018-06-30T00:58:10.368Z,99.90
2018-06-30T01:00:40.375Z,99.90
2018-06-30T01:03:09.788Z,99.90
2018-06-30T01:05:38.719Z,99.90
2018-06-30T01:08:07.738Z,99.90
2018-06-30T01:10:36.652Z,99.90
2018-06-30T01:13:05.592Z,99.90
2018-06-30T01:15:35.420Z,99.90
2018-06-30T01:18:04.343Z,99.90
2018-06-30T01:20:33.243Z,99.90
2018-06-30T01:23:02.136Z,99.90
2018-06-30T01:25:31.041Z,99.90
2018-06-30T01:27:59.941Z,99.90
2018-06-30T01:30:28.851Z,99.90
2018-06-30T01:32:57.823Z,99.90
2018-06-30T01:35:26.732Z,99.90
2018-06-30T01:37:56.164Z,99.90
2018-06-30T01:40:25.163Z,99.90
2018-06-30T01:42:54.050Z,99.90
2018-06-30T01:45:22.956Z,99.90
2018-06-30T01:47:51.855Z,99.90
2018-06-30T01:50:20.768Z,99.90
2018-06-30T01:52:50.019Z,99.90
2018-06-30T01:55:18.955Z,99.90
2018-06-30T01:57:47.868Z,99.90
2018-06-30T02:00:16.775Z,99.90
2018-06-30T02:02:45.704Z,99.90
2018-06-30T02:05:14.648Z,99.90
2018-06-30T02:07:43.569Z,99.90
2018-06-30T02:10:12.471Z,99.90
2018-06-30T02:12:41.380Z,99.90
2018-06-30T02:15:10.292Z,99.90
2018-06-30T02:17:39.270Z,99.90
2018-06-30T02:20:08.173Z,99.90
2018-06-30T02:22:37.101Z,99.90
2018-06-30T02:25:06.041Z,99.90
2018-06-30T02:27:34.965Z,99.90
2018-06-30T02:30:04.411Z,99.90
2018-06-30T02:32:33.353Z,99.90
2018-06-30T02:35:02.278Z,99.90
2018-06-30T02:37:31.188Z,99.90
2018-06-30T02:40:00.176Z,99.90
2018-06-30T02:42:30.193Z,99.90
2018-06-30T02:44:59.096Z,99.90
2018-06-30T02:47:28.138Z,99.90
2018-06-30T02:49:57.054Z,99.90
2018-06-30T02:52:26.296Z,99.90
2018-06-30T02:54:55.483Z,99.90
2018-06-30T02:57:24.397Z,99.90
2018-06-30T02:59:53.308Z,99.90
2018-06-30T03:02:22.306Z,99.90
2018-06-30T03:04:51.307Z,99.90
2018-06-30T03:07:20.207Z,99.90
2018-06-30T03:09:49.117Z,99.90
2018-06-30T03:14:46.584Z,99.90
2018-06-30T03:17:15.585Z,99.90
2018-06-30T03:19:44.965Z,99.90
2018-06-30T03:22:13.872Z,99.90
2018-06-30T03:24:42.776Z,99.90
2018-06-30T03:27:11.700Z,99.90
2018-06-30T03:29:40.629Z,99.90
2018-06-30T03:32:09.545Z,99.90
2018-06-30T03:34:38.451Z,99.90
2018-06-30T03:37:07.408Z,99.90
2018-06-30T03:39:36.320Z,99.90
2018-06-30T03:42:05.264Z,99.90
2018-06-30T03:44:34.247Z,99.90
2018-06-30T03:47:03.162Z,99.90
2018-06-30T03:49:32.073Z,99.90
2018-06-30T03:52:00.985Z,99.90
2018-06-30T03:54:29.899Z,99.90
2018-06-30T03:56:59.168Z,99.90
2018-06-30T03:59:28.032Z,99.90
2018-06-30T04:01:56.952Z,99.90
2018-06-30T04:04:25.864Z,99.90
2018-06-30T04:06:55.001Z,99.90
2018-06-30T04:09:24.051Z,99.90
2018-06-30T04:11:52.992Z,99.90
2018-06-30T04:14:21.904Z,99.90
2018-06-30T04:16:50.816Z,99.90
2018-06-30T04:19:19.761Z,99.90
2018-06-30T04:21:48.679Z,99.90
2018-06-30T04:26:46.137Z,99.90
2018-06-30T04:29:15.048Z,99.90
2018-06-30T04:31:43.952Z,99.90
2018-06-30T04:34:12.876Z,99.90
2018-06-30T04:36:41.792Z,99.90
2018-06-30T04:39:10.753Z,99.90
2018-06-30T04:41:39.660Z,99.90
2018-06-30T04:44:08.644Z,99.90
2018-06-30T04:46:37.566Z,99.90
2018-06-30T04:49:06.502Z,99.90
2018-06-30T04:51:35.570Z,99.90
2018-06-30T04:54:04.489Z,99.90
2018-06-30T04:56:33.396Z,99.90
2018-06-30T04:59:02.388Z,99.90
2018-06-30T05:01:31.292Z,99.90
2018-06-30T05:04:00.211Z,99.90
2018-06-30T05:06:29.156Z,99.90
2018-06-30T05:08:58.055Z,99.90
2018-06-30T05:11:26.959Z,99.90
2018-06-30T05:13:55.893Z,99.90
2018-06-30T05:18:53.337Z,99.90
2018-06-30T05:21:22.236Z,99.90
2018-06-30T05:23:51.140Z,99.90
2018-06-30T05:26:20.052Z,99.90
2018-06-30T05:28:48.988Z,99.90
2018-06-30T05:31:17.965Z,99.90
2018-06-30T05:33:47.615Z,99.90
2018-06-30T05:36:16.520Z,99.90
2018-06-30T05:38:45.428Z,99.90
2018-06-30T05:41:14.379Z,99.90
2018-06-30T05:43:43.284Z,99.90
2018-06-30T05:46:12.198Z,99.90
2018-06-30T05:48:41.099Z,99.90
2018-06-30T05:51:10.100Z,99.90
2018-06-30T05:53:39.029Z,99.90
2018-06-30T05:56:07.964Z,99.90
2018-06-30T05:58:36.879Z,99.90
2018-06-30T06:01:06.353Z,99.90
2018-06-30T06:03:35.303Z,99.90
2018-06-30T06:06:04.296Z,99.90
2018-06-30T06:08:33.469Z,99.90
2018-06-30T06:11:02.579Z,99.90
2018-06-30T06:13:31.481Z,99.90
2018-06-30T06:16:00.400Z,99.90
2018-06-30T06:18:29.308Z,99.90
2018-06-30T06:20:58.224Z,99.90
2018-06-30T06:23:27.131Z,99.90
2018-06-30T06:25:56.137Z,99.90
2018-06-30T06:28:25.141Z,99.90
2018-06-30T06:30:54.104Z,99.90
2018-06-30T06:33:23.004Z,99.90
2018-06-30T06:35:51.979Z,99.90
2018-06-30T06:38:20.984Z,99.90
2018-06-30T06:40:49.947Z,99.90
2018-06-30T06:43:18.856Z,99.90
2018-06-30T06:45:47.773Z,99.90
2018-06-30T06:48:16.664Z,99.60
2018-06-30T06:50:45.568Z,99.40
2018-06-30T06:53:14.472Z,99.20
2018-06-30T06:58:12.001Z,99.80
2018-06-30T07:00:40.933Z,99.60
2018-06-30T07:03:09.807Z,98.70
2018-06-30T07:05:38.707Z,97.20
2018-06-30T07:08:07.604Z,97.50
2018-06-30T07:10:36.576Z,97.70
2018-06-30T07:13:05.478Z,98.10
2018-06-30T07:15:34.398Z,98.10
2018-06-30T07:18:03.309Z,98.20
2018-06-30T07:20:32.219Z,97.40
2018-06-30T07:23:01.121Z,96.90
2018-06-30T07:25:30.094Z,96.30
2018-06-30T07:27:58.951Z,96.10
2018-06-30T07:30:27.884Z,95.60
2018-06-30T07:32:56.773Z,95.90
2018-06-30T07:35:25.714Z,95.60
2018-06-30T07:37:54.840Z,95.50
2018-06-30T07:40:23.880Z,96.10
2018-06-30T07:42:52.772Z,95.70
2018-06-30T07:45:21.670Z,94.50
2018-06-30T07:47:51.253Z,94.30
2018-06-30T07:50:20.275Z,94.10
2018-06-30T07:52:49.163Z,94.60
2018-06-30T07:55:18.085Z,94.80
2018-06-30T07:57:46.979Z,94.50
2018-06-30T08:00:16.687Z,93.50
2018-06-30T08:02:45.587Z,93.60
2018-06-30T08:05:14.545Z,93.80
2018-06-30T08:07:43.439Z,92.90
2018-06-30T08:10:12.353Z,92.90
2018-06-30T08:12:41.244Z,92.40
2018-06-30T08:15:10.173Z,91.90
2018-06-30T08:17:39.120Z,92.90
2018-06-30T08:20:08.053Z,92.20
2018-06-30T08:22:36.960Z,92.40
2018-06-30T08:25:05.991Z,92.00
2018-06-30T08:27:34.957Z,91.60
2018-06-30T08:30:04.468Z,91.50
2018-06-30T08:32:33.383Z,91.10
2018-06-30T08:37:30.825Z,91.20
2018-06-30T08:39:59.725Z,90.50
2018-06-30T08:42:28.622Z,90.50
2018-06-30T08:44:57.517Z,90.20
2018-06-30T08:47:26.417Z,89.90
2018-06-30T08:49:55.340Z,87.50
2018-06-30T08:52:24.244Z,88.00
2018-06-30T08:54:53.132Z,87.70
2018-06-30T08:57:22.035Z,87.50
2018-06-30T08:59:50.934Z,86.40
2018-06-30T09:02:19.851Z,87.40
2018-06-30T09:04:48.723Z,85.10
2018-06-30T09:07:17.616Z,87.00
2018-06-30T09:09:46.500Z,85.20
2018-06-30T09:12:15.435Z,81.60
2018-06-30T09:14:44.269Z,81.40
2018-06-30T09:17:13.160Z,81.40
2018-06-30T09:19:42.068Z,81.70
2018-06-30T09:22:10.970Z,78.60
2018-06-30T09:24:39.860Z,78.90
2018-06-30T09:27:09.200Z,79.50
2018-06-30T09:32:42.159Z,74.80
2018-06-30T09:35:11.477Z,72.80
2018-06-30T09:37:40.392Z,74.70
2018-06-30T10:16:55.757Z,64.70
2018-06-30T10:22:28.391Z,63.80
2018-06-30T10:24:57.314Z,65.60
2018-06-30T10:27:26.352Z,66.00
2018-06-30T10:29:59.237Z,62.90
2018-06-30T10:32:32.348Z,63.50
2018-06-30T10:35:03.114Z,64.60
2018-06-30T10:46:54.988Z,61.80
2018-06-30T10:51:54.652Z,60.00
2018-06-30T10:54:25.700Z,60.70
2018-06-30T10:56:56.334Z,59.40
2018-06-30T10:59:25.263Z,59.20
2018-06-30T11:01:54.246Z,58.60
2018-06-30T11:04:23.112Z,58.70
2018-06-30T11:06:52.000Z,59.30
2018-06-30T11:09:20.893Z,58.00
2018-06-30T11:11:50.038Z,57.00
2018-06-30T11:14:20.179Z,57.40
2018-06-30T11:16:49.074Z,56.00
2018-06-30T11:19:18.007Z,53.20
2018-06-30T17:07:28.649Z,21.70
2018-06-30T17:09:57.549Z,22.70
2018-06-30T17:12:26.608Z,23.50
2018-06-30T17:14:55.671Z,23.70
2018-06-30T17:17:24.524Z,23.80
2018-06-30T17:19:53.412Z,24.60
2018-06-30T17:22:22.288Z,25.30
2018-06-30T17:24:51.199Z,25.10
2018-06-30T17:27:20.137Z,25.50
2018-06-30T17:29:49.027Z,26.20
2018-06-30T17:32:17.928Z,26.00
2018-06-30T19:40:45.296Z,30.40
2018-06-30T19:43:14.880Z,30.50
2018-06-30T19:45:44.060Z,30.90
2018-06-30T19:48:13.039Z,30.90
2018-06-30T19:50:42.474Z,31.00
2018-06-30T19:53:11.887Z,31.40
2018-06-30T19:55:41.486Z,32.50
2018-06-30T19:58:11.950Z,32.30
2018-06-30T20:00:43.724Z,32.40
2018-06-30T20:21:33.729Z,35.70
2018-06-30T20:51:33.139Z,37.40
2018-06-30T21:03:13.146Z,37.60
2018-06-30T21:05:42.318Z,37.70
2018-06-30T21:08:11.416Z,38.10
2018-06-30T21:19:24.470Z,38.50
2018-06-30T21:58:34.198Z,42.00
2018-06-30T22:01:08.515Z,42.50
2018-06-30T22:03:37.452Z,42.40
2018-06-30T22:06:06.324Z,42.40
2018-06-30T22:08:35.208Z,42.90
2018-06-30T22:11:04.399Z,42.90
2018-06-30T22:13:33.016Z,42.70
2018-06-30T22:16:01.895Z,43.10
2018-06-30T22:18:30.796Z,42.60
2018-06-30T22:20:59.660Z,42.60
2018-06-30T22:23:28.595Z,42.60
2018-06-30T22:25:57.488Z,42.80
2018-06-30T22:28:26.375Z,42.50
2018-06-30T22:30:55.267Z,43.00
2018-06-30T22:33:24.156Z,42.90
2018-06-30T22:35:53.101Z,43.00
2018-06-30T22:38:21.984Z,43.00
2018-06-30T22:40:50.859Z,43.40
2018-06-30T22:43:19.768Z,43.60
2018-06-30T22:45:48.648Z,43.60
2018-06-30T22:48:18.533Z,43.50
2018-06-30T22:50:47.421Z,43.80
2018-06-30T22:53:16.337Z,44.30
2018-06-30T22:55:45.220Z,44.10
2018-06-30T22:58:14.276Z,44.30
2018-06-30T23:00:43.230Z,43.80
2018-06-30T23:03:12.701Z,44.30
2018-06-30T23:05:42.103Z,44.60
2018-06-30T23:08:10.987Z,44.60
2018-06-30T23:10:39.865Z,44.90
2018-06-30T23:13:08.792Z,45.50
2018-06-30T23:15:37.689Z,45.70
2018-06-30T23:18:06.580Z,46.00
2018-06-30T23:20:35.467Z,46.00
2018-06-30T23:23:08.347Z,46.60
2018-06-30T23:25:37.753Z,46.50
2018-06-30T23:28:06.886Z,46.10
2018-06-30T23:30:35.990Z,46.20
2018-06-30T23:33:04.888Z,46.20
2018-06-30T23:35:34.142Z,46.20
2018-06-30T23:38:03.655Z,46.50
2018-06-30T23:40:32.537Z,46.70
2018-06-30T23:43:01.493Z,46.80
2018-06-30T23:45:30.396Z,47.60
2018-06-30T23:47:59.303Z,48.30
2018-06-30T23:50:28.189Z,47.60
2018-06-30T23:52:57.084Z,48.80
2018-06-30T23:55:25.964Z,48.20
2018-06-30T23:57:54.901Z,47.70
